sensor_id;sensor_type;location;lat;lon;timestamp;temperature;humidity
58582;DHT22;44361;51.476;5.700;2023-06-14T00:02:17;17.60;65.60
58582;DHT22;44361;51.476;5.700;2023-06-14T00:04:42;17.50;65.70
58582;DHT22;44361;51.476;5.700;2023-06-14T00:07:08;17.40;65.80
58582;DHT22;44361;51.476;5.700;2023-06-14T00:09:34;17.40;65.90
58582;DHT22;44361;51.476;5.700;2023-06-14T00:12:01;17.40;66.10
58582;DHT22;44361;51.476;5.700;2023-06-14T00:14:26;17.30;66.10
58582;DHT22;44361;51.476;5.700;2023-06-14T00:16:52;17.30;66.10
58582;DHT22;44361;51.476;5.700;2023-06-14T00:19:24;17.30;66.50
58582;DHT22;44361;51.476;5.700;2023-06-14T00:21:50;17.20;66.40
58582;DHT22;44361;51.476;5.700;2023-06-14T00:24:17;17.20;66.60
58582;DHT22;44361;51.476;5.700;2023-06-14T00:26:43;17.10;66.50
58582;DHT22;44361;51.476;5.700;2023-06-14T00:29:08;17.00;66.50
58582;DHT22;44361;51.476;5.700;2023-06-14T00:31:34;17.10;66.90
58582;DHT22;44361;51.476;5.700;2023-06-14T00:33:59;17.00;67.00
58582;DHT22;44361;51.476;5.700;2023-06-14T00:36:25;16.90;67.10
58582;DHT22;44361;51.476;5.700;2023-06-14T00:38:51;16.90;67.30
58582;DHT22;44361;51.476;5.700;2023-06-14T00:41:16;16.80;67.00
58582;DHT22;44361;51.476;5.700;2023-06-14T00:43:42;16.80;67.60
58582;DHT22;44361;51.476;5.700;2023-06-14T00:46:08;16.70;67.90
58582;DHT22;44361;51.476;5.700;2023-06-14T00:48:34;16.70;67.90
58582;DHT22;44361;51.476;5.700;2023-06-14T00:51:01;16.70;67.70
58582;DHT22;44361;51.476;5.700;2023-06-14T00:53:29;16.70;67.60
58582;DHT22;44361;51.476;5.700;2023-06-14T00:55:55;16.60;67.20
58582;DHT22;44361;51.476;5.700;2023-06-14T00:58:22;16.70;68.00
58582;DHT22;44361;51.476;5.700;2023-06-14T01:00:47;16.60;67.90
58582;DHT22;44361;51.476;5.700;2023-06-14T01:03:13;16.50;67.70
58582;DHT22;44361;51.476;5.700;2023-06-14T01:05:47;16.50;68.10
58582;DHT22;44361;51.476;5.700;2023-06-14T01:08:34;16.50;68.10
58582;DHT22;44361;51.476;5.700;2023-06-14T01:11:10;16.40;68.30
58582;DHT22;44361;51.476;5.700;2023-06-14T01:13:43;16.40;68.20
58582;DHT22;44361;51.476;5.700;2023-06-14T01:16:10;16.50;68.50
58582;DHT22;44361;51.476;5.700;2023-06-14T01:18:37;16.40;67.90
58582;DHT22;44361;51.476;5.700;2023-06-14T01:21:03;16.40;67.80
58582;DHT22;44361;51.476;5.700;2023-06-14T01:23:32;16.30;67.60
58582;DHT22;44361;51.476;5.700;2023-06-14T01:25:58;16.30;67.90
58582;DHT22;44361;51.476;5.700;2023-06-14T01:28:25;16.30;67.90
58582;DHT22;44361;51.476;5.700;2023-06-14T01:30:53;16.20;67.70
58582;DHT22;44361;51.476;5.700;2023-06-14T01:33:26;16.20;68.10
58582;DHT22;44361;51.476;5.700;2023-06-14T01:35:53;16.20;68.30
58582;DHT22;44361;51.476;5.700;2023-06-14T01:38:23;16.10;68.60
58582;DHT22;44361;51.476;5.700;2023-06-14T01:40:50;16.10;68.60
58582;DHT22;44361;51.476;5.700;2023-06-14T01:43:16;16.00;68.70
58582;DHT22;44361;51.476;5.700;2023-06-14T01:45:42;15.90;68.90
58582;DHT22;44361;51.476;5.700;2023-06-14T01:48:09;15.90;69.00
58582;DHT22;44361;51.476;5.700;2023-06-14T01:50:35;15.90;69.40
58582;DHT22;44361;51.476;5.700;2023-06-14T01:53:00;15.80;69.30
58582;DHT22;44361;51.476;5.700;2023-06-14T01:55:26;15.80;69.20
58582;DHT22;44361;51.476;5.700;2023-06-14T01:57:52;15.80;69.20
58582;DHT22;44361;51.476;5.700;2023-06-14T02:00:19;15.70;69.20
58582;DHT22;44361;51.476;5.700;2023-06-14T02:02:45;15.70;69.60
58582;DHT22;44361;51.476;5.700;2023-06-14T02:05:11;15.80;69.30
58582;DHT22;44361;51.476;5.700;2023-06-14T02:07:37;15.80;69.40
58582;DHT22;44361;51.476;5.700;2023-06-14T02:10:04;15.70;69.50
58582;DHT22;44361;51.476;5.700;2023-06-14T02:12:30;15.90;69.70
58582;DHT22;44361;51.476;5.700;2023-06-14T02:14:55;15.80;69.10
58582;DHT22;44361;51.476;5.700;2023-06-14T02:17:22;15.90;69.50
58582;DHT22;44361;51.476;5.700;2023-06-14T02:19:48;15.90;69.20
58582;DHT22;44361;51.476;5.700;2023-06-14T02:22:14;15.80;69.50
58582;DHT22;44361;51.476;5.700;2023-06-14T02:24:41;15.80;69.80
58582;DHT22;44361;51.476;5.700;2023-06-14T02:27:06;15.70;69.80
58582;DHT22;44361;51.476;5.700;2023-06-14T02:29:32;15.70;69.50
58582;DHT22;44361;51.476;5.700;2023-06-14T02:31:57;15.70;69.60
58582;DHT22;44361;51.476;5.700;2023-06-14T02:34:23;15.80;70.00
58582;DHT22;44361;51.476;5.700;2023-06-14T02:36:48;15.70;69.50
58582;DHT22;44361;51.476;5.700;2023-06-14T02:39:15;15.70;69.60
58582;DHT22;44361;51.476;5.700;2023-06-14T02:41:40;15.70;70.00
58582;DHT22;44361;51.476;5.700;2023-06-14T02:44:06;15.70;70.20
58582;DHT22;44361;51.476;5.700;2023-06-14T02:46:32;15.70;69.60
58582;DHT22;44361;51.476;5.700;2023-06-14T02:48:57;15.70;69.60
58582;DHT22;44361;51.476;5.700;2023-06-14T02:51:23;15.70;69.80
58582;DHT22;44361;51.476;5.700;2023-06-14T02:53:48;15.70;69.60
58582;DHT22;44361;51.476;5.700;2023-06-14T02:56:14;15.60;69.90
58582;DHT22;44361;51.476;5.700;2023-06-14T02:58:42;15.60;69.80
58582;DHT22;44361;51.476;5.700;2023-06-14T03:01:08;15.60;70.00
58582;DHT22;44361;51.476;5.700;2023-06-14T03:03:35;15.60;70.00
58582;DHT22;44361;51.476;5.700;2023-06-14T03:06:00;15.60;70.10
58582;DHT22;44361;51.476;5.700;2023-06-14T03:08:30;15.60;70.40
58582;DHT22;44361;51.476;5.700;2023-06-14T03:10:57;15.50;70.70
58582;DHT22;44361;51.476;5.700;2023-06-14T03:13:23;15.50;70.60
58582;DHT22;44361;51.476;5.700;2023-06-14T03:15:48;15.40;70.80
58582;DHT22;44361;51.476;5.700;2023-06-14T03:18:16;15.50;70.70
58582;DHT22;44361;51.476;5.700;2023-06-14T03:20:42;15.50;70.80
58582;DHT22;44361;51.476;5.700;2023-06-14T03:23:11;15.40;71.10
58582;DHT22;44361;51.476;5.700;2023-06-14T03:25:37;15.50;70.90
58582;DHT22;44361;51.476;5.700;2023-06-14T03:28:04;15.50;70.80
58582;DHT22;44361;51.476;5.700;2023-06-14T03:30:30;15.50;71.20
58582;DHT22;44361;51.476;5.700;2023-06-14T03:32:57;15.40;71.00
58582;DHT22;44361;51.476;5.700;2023-06-14T03:35:23;15.40;71.00
58582;DHT22;44361;51.476;5.700;2023-06-14T03:37:49;15.40;70.80
58582;DHT22;44361;51.476;5.700;2023-06-14T03:40:17;15.40;71.10
58582;DHT22;44361;51.476;5.700;2023-06-14T03:42:43;15.50;71.00
58582;DHT22;44361;51.476;5.700;2023-06-14T03:45:08;15.50;71.00
58582;DHT22;44361;51.476;5.700;2023-06-14T03:47:35;15.50;70.60
58582;DHT22;44361;51.476;5.700;2023-06-14T03:50:01;15.50;71.60
58582;DHT22;44361;51.476;5.700;2023-06-14T03:52:27;15.40;70.90
58582;DHT22;44361;51.476;5.700;2023-06-14T03:54:53;15.50;71.40
58582;DHT22;44361;51.476;5.700;2023-06-14T03:57:19;15.50;71.70
58582;DHT22;44361;51.476;5.700;2023-06-14T03:59:45;15.50;71.70
58582;DHT22;44361;51.476;5.700;2023-06-14T04:02:11;15.50;71.90
58582;DHT22;44361;51.476;5.700;2023-06-14T04:04:37;15.60;72.00
58582;DHT22;44361;51.476;5.700;2023-06-14T04:07:03;15.50;71.90
58582;DHT22;44361;51.476;5.700;2023-06-14T04:09:29;15.60;72.00
58582;DHT22;44361;51.476;5.700;2023-06-14T04:11:55;15.60;72.40
58582;DHT22;44361;51.476;5.700;2023-06-14T04:14:21;15.60;72.50
58582;DHT22;44361;51.476;5.700;2023-06-14T04:16:48;15.60;71.70
58582;DHT22;44361;51.476;5.700;2023-06-14T04:19:14;15.60;71.80
58582;DHT22;44361;51.476;5.700;2023-06-14T04:21:40;15.80;72.00
58582;DHT22;44361;51.476;5.700;2023-06-14T04:24:05;15.90;71.20
58582;DHT22;44361;51.476;5.700;2023-06-14T04:26:32;15.90;71.10
58582;DHT22;44361;51.476;5.700;2023-06-14T04:29:01;15.90;71.70
58582;DHT22;44361;51.476;5.700;2023-06-14T04:31:28;15.90;71.70
58582;DHT22;44361;51.476;5.700;2023-06-14T04:33:55;15.90;71.90
58582;DHT22;44361;51.476;5.700;2023-06-14T04:36:21;16.00;71.90
58582;DHT22;44361;51.476;5.700;2023-06-14T04:38:46;16.00;72.00
58582;DHT22;44361;51.476;5.700;2023-06-14T04:41:14;16.00;72.00
58582;DHT22;44361;51.476;5.700;2023-06-14T04:43:41;16.10;71.60
58582;DHT22;44361;51.476;5.700;2023-06-14T04:46:08;16.20;72.00
58582;DHT22;44361;51.476;5.700;2023-06-14T04:48:39;16.20;71.70
58582;DHT22;44361;51.476;5.700;2023-06-14T04:51:08;16.20;71.80
58582;DHT22;44361;51.476;5.700;2023-06-14T04:53:35;16.30;71.90
58582;DHT22;44361;51.476;5.700;2023-06-14T04:56:01;16.50;72.00
58582;DHT22;44361;51.476;5.700;2023-06-14T04:58:29;16.50;71.50
58582;DHT22;44361;51.476;5.700;2023-06-14T05:00:55;16.70;71.60
58582;DHT22;44361;51.476;5.700;2023-06-14T05:03:22;17.40;70.10
58582;DHT22;44361;51.476;5.700;2023-06-14T05:05:49;18.20;69.30
58582;DHT22;44361;51.476;5.700;2023-06-14T05:08:16;18.70;67.30
58582;DHT22;44361;51.476;5.700;2023-06-14T05:10:41;19.10;65.90
58582;DHT22;44361;51.476;5.700;2023-06-14T05:13:07;19.50;65.00
58582;DHT22;44361;51.476;5.700;2023-06-14T05:15:33;19.80;64.20
58582;DHT22;44361;51.476;5.700;2023-06-14T05:17:58;19.90;63.40
58582;DHT22;44361;51.476;5.700;2023-06-14T05:20:24;19.80;63.40
58582;DHT22;44361;51.476;5.700;2023-06-14T05:22:52;20.00;63.50
58582;DHT22;44361;51.476;5.700;2023-06-14T05:25:19;20.20;62.90
58582;DHT22;44361;51.476;5.700;2023-06-14T05:27:46;20.40;62.40
58582;DHT22;44361;51.476;5.700;2023-06-14T05:30:12;20.60;61.90
58582;DHT22;44361;51.476;5.700;2023-06-14T05:32:37;20.80;62.10
58582;DHT22;44361;51.476;5.700;2023-06-14T05:35:03;20.90;61.80
58582;DHT22;44361;51.476;5.700;2023-06-14T05:37:29;21.00;61.20
58582;DHT22;44361;51.476;5.700;2023-06-14T05:39:56;20.90;60.90
58582;DHT22;44361;51.476;5.700;2023-06-14T05:42:21;20.90;61.10
58582;DHT22;44361;51.476;5.700;2023-06-14T05:44:47;20.70;61.30
58582;DHT22;44361;51.476;5.700;2023-06-14T05:47:12;20.60;61.10
58582;DHT22;44361;51.476;5.700;2023-06-14T05:49:38;20.80;62.00
58582;DHT22;44361;51.476;5.700;2023-06-14T05:52:04;20.90;61.70
58582;DHT22;44361;51.476;5.700;2023-06-14T05:54:30;21.30;61.80
58582;DHT22;44361;51.476;5.700;2023-06-14T05:56:55;21.50;61.30
58582;DHT22;44361;51.476;5.700;2023-06-14T05:59:29;21.60;61.40
58582;DHT22;44361;51.476;5.700;2023-06-14T06:01:54;21.80;61.50
58582;DHT22;44361;51.476;5.700;2023-06-14T06:04:20;22.20;61.30
58582;DHT22;44361;51.476;5.700;2023-06-14T06:06:45;21.80;60.70
58582;DHT22;44361;51.476;5.700;2023-06-14T06:09:12;21.50;60.80
58582;DHT22;44361;51.476;5.700;2023-06-14T06:11:37;21.50;62.00
58582;DHT22;44361;51.476;5.700;2023-06-14T06:14:03;21.60;60.60
58582;DHT22;44361;51.476;5.700;2023-06-14T06:16:28;21.60;61.10
58582;DHT22;44361;51.476;5.700;2023-06-14T06:18:54;21.90;61.90
58582;DHT22;44361;51.476;5.700;2023-06-14T06:21:19;21.90;60.70
58582;DHT22;44361;51.476;5.700;2023-06-14T06:23:45;22.30;60.90
58582;DHT22;44361;51.476;5.700;2023-06-14T06:26:10;22.40;60.50
58582;DHT22;44361;51.476;5.700;2023-06-14T06:28:36;22.60;60.80
58582;DHT22;44361;51.476;5.700;2023-06-14T06:31:01;22.60;60.10
58582;DHT22;44361;51.476;5.700;2023-06-14T06:33:28;22.60;59.20
58582;DHT22;44361;51.476;5.700;2023-06-14T06:35:53;22.70;60.30
58582;DHT22;44361;51.476;5.700;2023-06-14T06:38:19;23.00;60.90
58582;DHT22;44361;51.476;5.700;2023-06-14T06:40:45;23.20;59.10
58582;DHT22;44361;51.476;5.700;2023-06-14T06:43:10;23.10;57.80
58582;DHT22;44361;51.476;5.700;2023-06-14T06:45:39;23.00;58.10
58582;DHT22;44361;51.476;5.700;2023-06-14T06:48:05;22.80;58.80
58582;DHT22;44361;51.476;5.700;2023-06-14T06:50:31;22.90;59.00
58582;DHT22;44361;51.476;5.700;2023-06-14T06:52:57;22.80;58.40
58582;DHT22;44361;51.476;5.700;2023-06-14T06:55:22;22.90;57.80
58582;DHT22;44361;51.476;5.700;2023-06-14T06:57:48;22.60;57.90
58582;DHT22;44361;51.476;5.700;2023-06-14T07:00:15;22.70;58.30
58582;DHT22;44361;51.476;5.700;2023-06-14T07:02:41;23.10;58.70
58582;DHT22;44361;51.476;5.700;2023-06-14T07:05:07;23.10;57.70
58582;DHT22;44361;51.476;5.700;2023-06-14T07:07:33;23.30;58.10
58582;DHT22;44361;51.476;5.700;2023-06-14T07:09:59;23.30;57.90
58582;DHT22;44361;51.476;5.700;2023-06-14T07:12:25;23.40;57.90
58582;DHT22;44361;51.476;5.700;2023-06-14T07:14:51;23.60;57.90
58582;DHT22;44361;51.476;5.700;2023-06-14T07:17:16;23.50;58.10
58582;DHT22;44361;51.476;5.700;2023-06-14T07:19:42;23.30;57.40
58582;DHT22;44361;51.476;5.700;2023-06-14T07:22:07;23.60;57.10
58582;DHT22;44361;51.476;5.700;2023-06-14T07:24:33;23.50;57.30
58582;DHT22;44361;51.476;5.700;2023-06-14T07:27:01;23.20;56.40
58582;DHT22;44361;51.476;5.700;2023-06-14T07:29:28;23.00;56.90
58582;DHT22;44361;51.476;5.700;2023-06-14T07:31:53;23.20;57.40
58582;DHT22;44361;51.476;5.700;2023-06-14T07:34:19;23.20;58.00
58582;DHT22;44361;51.476;5.700;2023-06-14T07:36:45;23.20;56.40
58582;DHT22;44361;51.476;5.700;2023-06-14T07:39:11;23.20;56.70
58582;DHT22;44361;51.476;5.700;2023-06-14T07:41:36;23.40;57.20
58582;DHT22;44361;51.476;5.700;2023-06-14T07:44:02;23.50;57.90
58582;DHT22;44361;51.476;5.700;2023-06-14T07:46:27;23.50;56.50
58582;DHT22;44361;51.476;5.700;2023-06-14T07:48:53;23.40;56.40
58582;DHT22;44361;51.476;5.700;2023-06-14T07:51:19;23.70;57.20
58582;DHT22;44361;51.476;5.700;2023-06-14T07:53:45;24.00;57.30
58582;DHT22;44361;51.476;5.700;2023-06-14T07:56:11;23.90;56.00
58582;DHT22;44361;51.476;5.700;2023-06-14T07:58:36;23.60;56.00
58582;DHT22;44361;51.476;5.700;2023-06-14T08:01:02;23.80;56.30
58582;DHT22;44361;51.476;5.700;2023-06-14T08:03:31;23.90;55.50
58582;DHT22;44361;51.476;5.700;2023-06-14T08:05:57;23.80;54.50
58582;DHT22;44361;51.476;5.700;2023-06-14T08:08:23;23.70;54.80
58582;DHT22;44361;51.476;5.700;2023-06-14T08:10:48;23.80;54.60
58582;DHT22;44361;51.476;5.700;2023-06-14T08:13:14;24.00;54.40
58582;DHT22;44361;51.476;5.700;2023-06-14T08:15:39;24.30;55.30
58582;DHT22;44361;51.476;5.700;2023-06-14T08:18:05;24.40;54.40
58582;DHT22;44361;51.476;5.700;2023-06-14T08:20:30;24.40;54.10
58582;DHT22;44361;51.476;5.700;2023-06-14T08:22:57;24.40;54.30
58582;DHT22;44361;51.476;5.700;2023-06-14T08:25:23;24.60;54.00
58582;DHT22;44361;51.476;5.700;2023-06-14T08:27:49;24.50;54.30
58582;DHT22;44361;51.476;5.700;2023-06-14T08:30:15;24.80;54.70
58582;DHT22;44361;51.476;5.700;2023-06-14T08:32:42;24.70;54.90
58582;DHT22;44361;51.476;5.700;2023-06-14T08:35:08;25.00;54.70
58582;DHT22;44361;51.476;5.700;2023-06-14T08:37:38;24.90;54.40
58582;DHT22;44361;51.476;5.700;2023-06-14T08:40:12;25.00;54.30
58582;DHT22;44361;51.476;5.700;2023-06-14T08:42:43;25.00;54.10
58582;DHT22;44361;51.476;5.700;2023-06-14T08:45:09;25.40;54.80
58582;DHT22;44361;51.476;5.700;2023-06-14T08:47:35;25.50;51.80
58582;DHT22;44361;51.476;5.700;2023-06-14T08:50:03;25.30;52.10
58582;DHT22;44361;51.476;5.700;2023-06-14T08:52:33;25.10;53.00
58582;DHT22;44361;51.476;5.700;2023-06-14T08:55:06;25.10;51.50
58582;DHT22;44361;51.476;5.700;2023-06-14T08:57:36;25.40;51.70
58582;DHT22;44361;51.476;5.700;2023-06-14T09:00:03;25.50;50.90
58582;DHT22;44361;51.476;5.700;2023-06-14T09:02:36;25.60;50.20
58582;DHT22;44361;51.476;5.700;2023-06-14T09:05:02;25.70;49.80
58582;DHT22;44361;51.476;5.700;2023-06-14T09:07:27;25.70;48.50
58582;DHT22;44361;51.476;5.700;2023-06-14T09:10:15;25.60;49.40
58582;DHT22;44361;51.476;5.700;2023-06-14T09:12:40;25.40;48.50
58582;DHT22;44361;51.476;5.700;2023-06-14T09:15:07;25.40;48.70
58582;DHT22;44361;51.476;5.700;2023-06-14T09:17:37;25.70;49.50
58582;DHT22;44361;51.476;5.700;2023-06-14T09:20:03;25.80;48.10
58582;DHT22;44361;51.476;5.700;2023-06-14T09:22:35;25.60;47.70
58582;DHT22;44361;51.476;5.700;2023-06-14T09:25:01;25.90;48.20
58582;DHT22;44361;51.476;5.700;2023-06-14T09:27:27;25.90;46.90
58582;DHT22;44361;51.476;5.700;2023-06-14T09:29:53;25.50;47.40
58582;DHT22;44361;51.476;5.700;2023-06-14T09:32:19;25.50;47.40
58582;DHT22;44361;51.476;5.700;2023-06-14T09:34:45;25.80;47.70
58582;DHT22;44361;51.476;5.700;2023-06-14T09:37:11;26.10;47.20
58582;DHT22;44361;51.476;5.700;2023-06-14T09:39:50;25.40;46.80
58582;DHT22;44361;51.476;5.700;2023-06-14T09:42:17;25.40;47.70
58582;DHT22;44361;51.476;5.700;2023-06-14T09:44:48;25.50;47.50
58582;DHT22;44361;51.476;5.700;2023-06-14T09:47:18;25.70;47.00
58582;DHT22;44361;51.476;5.700;2023-06-14T09:49:44;26.10;47.20
58582;DHT22;44361;51.476;5.700;2023-06-14T09:52:20;25.60;46.40
58582;DHT22;44361;51.476;5.700;2023-06-14T09:54:47;25.70;47.60
58582;DHT22;44361;51.476;5.700;2023-06-14T09:57:15;26.00;48.30
58582;DHT22;44361;51.476;5.700;2023-06-14T09:59:46;26.30;47.00
58582;DHT22;44361;51.476;5.700;2023-06-14T10:02:25;26.00;46.10
58582;DHT22;44361;51.476;5.700;2023-06-14T10:05:03;26.10;47.90
58582;DHT22;44361;51.476;5.700;2023-06-14T10:07:35;26.10;45.90
58582;DHT22;44361;51.476;5.700;2023-06-14T10:10:02;26.10;46.30
58582;DHT22;44361;51.476;5.700;2023-06-14T10:12:28;26.20;46.80
58582;DHT22;44361;51.476;5.700;2023-06-14T10:14:54;26.70;47.50
58582;DHT22;44361;51.476;5.700;2023-06-14T10:17:26;26.30;46.30
58582;DHT22;44361;51.476;5.700;2023-06-14T10:22:53;26.60;46.90
58582;DHT22;44361;51.476;5.700;2023-06-14T10:25:28;27.00;46.80
58582;DHT22;44361;51.476;5.700;2023-06-14T10:28:18;26.40;46.90
58582;DHT22;44361;51.476;5.700;2023-06-14T10:31:03;26.40;47.30
58582;DHT22;44361;51.476;5.700;2023-06-14T10:33:55;26.60;46.40
58582;DHT22;44361;51.476;5.700;2023-06-14T10:36:31;26.60;47.00
58582;DHT22;44361;51.476;5.700;2023-06-14T10:41:36;26.40;47.10
58582;DHT22;44361;51.476;5.700;2023-06-14T10:46:40;26.30;47.70
58582;DHT22;44361;51.476;5.700;2023-06-14T10:49:06;26.30;48.90
58582;DHT22;44361;51.476;5.700;2023-06-14T10:51:42;26.30;48.10
58582;DHT22;44361;51.476;5.700;2023-06-14T10:54:15;26.40;48.10
58582;DHT22;44361;51.476;5.700;2023-06-14T10:56:51;26.30;48.50
58582;DHT22;44361;51.476;5.700;2023-06-14T10:59:18;26.20;47.80
58582;DHT22;44361;51.476;5.700;2023-06-14T11:04:49;26.00;48.40
58582;DHT22;44361;51.476;5.700;2023-06-14T11:12:34;25.90;48.20
58582;DHT22;44361;51.476;5.700;2023-06-14T11:15:01;26.00;48.60
58582;DHT22;44361;51.476;5.700;2023-06-14T11:17:26;26.10;49.10
58582;DHT22;44361;51.476;5.700;2023-06-14T11:20:10;26.50;48.90
58582;DHT22;44361;51.476;5.700;2023-06-14T11:22:44;26.20;48.70
58582;DHT22;44361;51.476;5.700;2023-06-14T11:25:13;26.00;49.10
58582;DHT22;44361;51.476;5.700;2023-06-14T11:27:38;25.90;49.40
58582;DHT22;44361;51.476;5.700;2023-06-14T11:30:07;26.20;50.20
58582;DHT22;44361;51.476;5.700;2023-06-14T11:32:33;26.30;49.10
58582;DHT22;44361;51.476;5.700;2023-06-14T11:34:58;26.70;49.90
58582;DHT22;44361;51.476;5.700;2023-06-14T11:37:26;27.00;48.60
58582;DHT22;44361;51.476;5.700;2023-06-14T11:39:56;26.90;48.70
58582;DHT22;44361;51.476;5.700;2023-06-14T11:42:22;26.50;48.00
58582;DHT22;44361;51.476;5.700;2023-06-14T11:44:49;26.70;48.80
58582;DHT22;44361;51.476;5.700;2023-06-14T11:47:15;26.50;49.00
58582;DHT22;44361;51.476;5.700;2023-06-14T11:49:40;26.90;49.10
58582;DHT22;44361;51.476;5.700;2023-06-14T11:52:07;26.60;48.70
58582;DHT22;44361;51.476;5.700;2023-06-14T11:54:33;26.90;50.00
58582;DHT22;44361;51.476;5.700;2023-06-14T11:56:59;26.40;48.70
58582;DHT22;44361;51.476;5.700;2023-06-14T11:59:25;26.30;49.60
58582;DHT22;44361;51.476;5.700;2023-06-14T12:01:53;26.50;49.40
58582;DHT22;44361;51.476;5.700;2023-06-14T12:04:29;26.40;49.10
58582;DHT22;44361;51.476;5.700;2023-06-14T12:06:55;26.40;48.40
58582;DHT22;44361;51.476;5.700;2023-06-14T12:09:21;26.20;49.70
58582;DHT22;44361;51.476;5.700;2023-06-14T12:11:49;26.40;49.00
58582;DHT22;44361;51.476;5.700;2023-06-14T12:14:15;26.50;48.90
58582;DHT22;44361;51.476;5.700;2023-06-14T12:16:42;26.50;49.10
58582;DHT22;44361;51.476;5.700;2023-06-14T12:21:37;26.50;48.20
58582;DHT22;44361;51.476;5.700;2023-06-14T12:24:04;26.70;48.80
58582;DHT22;44361;51.476;5.700;2023-06-14T12:26:32;26.50;47.20
58582;DHT22;44361;51.476;5.700;2023-06-14T12:28:58;26.40;47.50
58582;DHT22;44361;51.476;5.700;2023-06-14T12:31:24;26.40;47.30
58582;DHT22;44361;51.476;5.700;2023-06-14T12:33:49;26.50;47.90
58582;DHT22;44361;51.476;5.700;2023-06-14T12:36:16;26.90;47.60
58582;DHT22;44361;51.476;5.700;2023-06-14T12:38:43;26.90;47.00
58582;DHT22;44361;51.476;5.700;2023-06-14T12:41:08;27.00;47.60
58582;DHT22;44361;51.476;5.700;2023-06-14T12:43:34;26.90;46.40
58582;DHT22;44361;51.476;5.700;2023-06-14T12:46:00;26.80;46.30
58582;DHT22;44361;51.476;5.700;2023-06-14T12:48:26;26.60;47.70
58582;DHT22;44361;51.476;5.700;2023-06-14T12:50:56;27.00;47.20
58582;DHT22;44361;51.476;5.700;2023-06-14T12:53:22;27.20;46.90
58582;DHT22;44361;51.476;5.700;2023-06-14T12:55:48;27.40;46.80
58582;DHT22;44361;51.476;5.700;2023-06-14T12:58:14;27.50;47.50
58582;DHT22;44361;51.476;5.700;2023-06-14T13:00:40;27.10;46.40
58582;DHT22;44361;51.476;5.700;2023-06-14T13:03:05;27.20;47.30
58582;DHT22;44361;51.476;5.700;2023-06-14T13:05:31;27.10;46.70
58582;DHT22;44361;51.476;5.700;2023-06-14T13:07:59;27.20;46.80
58582;DHT22;44361;51.476;5.700;2023-06-14T13:10:26;27.30;46.70
58582;DHT22;44361;51.476;5.700;2023-06-14T13:12:51;27.00;47.30
58582;DHT22;44361;51.476;5.700;2023-06-14T13:15:17;26.60;48.00
58582;DHT22;44361;51.476;5.700;2023-06-14T13:17:42;26.60;48.90
58582;DHT22;44361;51.476;5.700;2023-06-14T13:20:13;26.60;49.00
58582;DHT22;44361;51.476;5.700;2023-06-14T13:22:39;26.50;48.30
58582;DHT22;44361;51.476;5.700;2023-06-14T13:25:05;26.30;48.40
58582;DHT22;44361;51.476;5.700;2023-06-14T13:27:31;26.60;48.70
58582;DHT22;44361;51.476;5.700;2023-06-14T13:29:57;26.60;47.60
58582;DHT22;44361;51.476;5.700;2023-06-14T13:32:22;26.70;47.50
58582;DHT22;44361;51.476;5.700;2023-06-14T13:34:48;27.00;47.20
58582;DHT22;44361;51.476;5.700;2023-06-14T13:37:14;27.10;47.40
58582;DHT22;44361;51.476;5.700;2023-06-14T13:39:39;27.00;46.50
58582;DHT22;44361;51.476;5.700;2023-06-14T13:42:05;26.90;46.40
58582;DHT22;44361;51.476;5.700;2023-06-14T13:44:31;26.80;47.10
58582;DHT22;44361;51.476;5.700;2023-06-14T13:46:56;27.00;46.80
58582;DHT22;44361;51.476;5.700;2023-06-14T13:49:22;27.00;46.50
58582;DHT22;44361;51.476;5.700;2023-06-14T13:51:48;27.20;46.90
58582;DHT22;44361;51.476;5.700;2023-06-14T13:54:14;27.20;46.60
58582;DHT22;44361;51.476;5.700;2023-06-14T13:56:42;27.20;46.90
58582;DHT22;44361;51.476;5.700;2023-06-14T13:59:07;27.60;46.60
58582;DHT22;44361;51.476;5.700;2023-06-14T14:01:33;27.60;45.90
58582;DHT22;44361;51.476;5.700;2023-06-14T14:03:59;27.90;46.20
58582;DHT22;44361;51.476;5.700;2023-06-14T14:06:26;27.90;45.80
58582;DHT22;44361;51.476;5.700;2023-06-14T14:08:51;27.70;45.70
58582;DHT22;44361;51.476;5.700;2023-06-14T14:11:18;27.30;45.70
58582;DHT22;44361;51.476;5.700;2023-06-14T14:13:44;27.10;46.20
58582;DHT22;44361;51.476;5.700;2023-06-14T14:16:10;27.50;46.80
58582;DHT22;44361;51.476;5.700;2023-06-14T14:18:35;27.60;47.20
58582;DHT22;44361;51.476;5.700;2023-06-14T14:21:02;27.90;46.90
58582;DHT22;44361;51.476;5.700;2023-06-14T14:23:27;27.80;46.00
58582;DHT22;44361;51.476;5.700;2023-06-14T14:25:53;28.00;46.60
58582;DHT22;44361;51.476;5.700;2023-06-14T14:28:19;28.00;47.10
58582;DHT22;44361;51.476;5.700;2023-06-14T14:30:46;27.50;46.20
58582;DHT22;44361;51.476;5.700;2023-06-14T14:33:15;27.50;47.60
58582;DHT22;44361;51.476;5.700;2023-06-14T14:35:45;27.60;47.60
58582;DHT22;44361;51.476;5.700;2023-06-14T14:38:11;27.60;46.90
58582;DHT22;44361;51.476;5.700;2023-06-14T14:40:37;27.80;47.20
58582;DHT22;44361;51.476;5.700;2023-06-14T14:43:02;27.70;45.40
58582;DHT22;44361;51.476;5.700;2023-06-14T14:45:28;27.80;46.20
58582;DHT22;44361;51.476;5.700;2023-06-14T14:47:53;28.10;45.60
58582;DHT22;44361;51.476;5.700;2023-06-14T14:50:19;28.10;45.30
58582;DHT22;44361;51.476;5.700;2023-06-14T14:52:45;28.10;45.40
58582;DHT22;44361;51.476;5.700;2023-06-14T14:55:11;27.80;46.70
58582;DHT22;44361;51.476;5.700;2023-06-14T14:57:36;27.50;47.10
58582;DHT22;44361;51.476;5.700;2023-06-14T15:00:03;27.50;46.80
58582;DHT22;44361;51.476;5.700;2023-06-14T15:02:29;27.50;46.70
58582;DHT22;44361;51.476;5.700;2023-06-14T15:04:54;27.50;46.80
58582;DHT22;44361;51.476;5.700;2023-06-14T15:07:22;27.50;47.00
58582;DHT22;44361;51.476;5.700;2023-06-14T15:09:48;27.50;46.40
58582;DHT22;44361;51.476;5.700;2023-06-14T15:12:16;27.30;46.30
58582;DHT22;44361;51.476;5.700;2023-06-14T15:14:41;27.50;47.40
58582;DHT22;44361;51.476;5.700;2023-06-14T15:17:07;27.80;48.10
58582;DHT22;44361;51.476;5.700;2023-06-14T15:19:32;28.00;46.30
58582;DHT22;44361;51.476;5.700;2023-06-14T15:21:59;27.90;46.70
58582;DHT22;44361;51.476;5.700;2023-06-14T15:24:25;28.20;47.30
58582;DHT22;44361;51.476;5.700;2023-06-14T15:26:50;28.20;47.30
58582;DHT22;44361;51.476;5.700;2023-06-14T15:29:16;28.30;47.40
58582;DHT22;44361;51.476;5.700;2023-06-14T15:31:41;28.50;47.00
58582;DHT22;44361;51.476;5.700;2023-06-14T15:34:07;28.20;46.80
58582;DHT22;44361;51.476;5.700;2023-06-14T15:36:32;27.60;46.30
58582;DHT22;44361;51.476;5.700;2023-06-14T15:38:58;27.60;46.40
58582;DHT22;44361;51.476;5.700;2023-06-14T15:41:23;27.80;46.70
58582;DHT22;44361;51.476;5.700;2023-06-14T15:43:49;28.40;45.40
58582;DHT22;44361;51.476;5.700;2023-06-14T15:46:15;29.00;45.20
58582;DHT22;44361;51.476;5.700;2023-06-14T15:48:40;28.90;45.10